createdAt,value
2022-10-21T00:00:44.271Z,9.40
2022-10-21T00:05:46.425Z,9.30
2022-10-21T00:10:53.233Z,9.30
2022-10-21T00:16:08.390Z,9.30
2022-10-21T00:21:18.959Z,9.30
2022-10-21T00:26:21.052Z,9.30
2022-10-21T00:31:23.425Z,9.30
2022-10-21T00:36:25.184Z,9.30
2022-10-21T00:41:26.949Z,9.30
2022-10-21T00:46:36.543Z,9.30
2022-10-21T00:51:38.574Z,9.40
2022-10-21T00:56:42.363Z,9.40
2022-10-21T01:01:44.459Z,9.40
2022-10-21T01:06:47.081Z,9.40
2022-10-21T01:11:49.669Z,9.40
2022-10-21T01:16:57.449Z,9.40
2022-10-21T01:22:37.678Z,9.40
2022-10-21T01:27:48.676Z,9.40
2022-10-21T01:33:16.684Z,9.40
2022-10-21T01:38:34.541Z,9.40
2022-10-21T01:43:45.419Z,9.50
2022-10-21T01:48:52.701Z,9.40
2022-10-21T01:54:05.475Z,9.50
2022-10-21T01:59:10.145Z,9.50
2022-10-21T02:04:13.607Z,9.60
2022-10-21T02:09:15.383Z,9.60
2022-10-21T02:14:31.520Z,9.60
2022-10-21T02:19:33.339Z,9.70
2022-10-21T02:24:37.773Z,9.70
2022-10-21T02:29:42.190Z,9.70
2022-10-21T02:34:58.295Z,9.70
2022-10-21T02:40:13.226Z,9.80
2022-10-21T02:45:17.637Z,9.80
2022-10-21T02:50:19.465Z,9.90
2022-10-21T02:55:21.212Z,9.90
2022-10-21T03:00:22.954Z,9.90
2022-10-21T03:05:24.842Z,9.90
2022-10-21T03:10:26.581Z,9.90
2022-10-21T03:15:28.297Z,9.90
2022-10-21T03:20:30.013Z,10.00
2022-10-21T03:25:35.271Z,10.00
2022-10-21T03:30:37.495Z,10.00
2022-10-21T03:35:39.214Z,10.10
2022-10-21T03:40:40.904Z,10.10
2022-10-21T03:45:42.682Z,10.00
2022-10-21T03:50:44.553Z,10.00
2022-10-21T03:55:46.318Z,10.00
2022-10-21T04:00:52.895Z,10.00
2022-10-21T04:05:55.257Z,10.00
2022-10-21T04:11:00.320Z,9.90
2022-10-21T04:16:04.975Z,9.90
2022-10-21T04:21:06.847Z,9.90
2022-10-21T04:26:09.330Z,10.00
2022-10-21T04:31:11.152Z,10.00
2022-10-21T04:36:12.890Z,10.00
2022-10-21T04:41:14.611Z,10.10
2022-10-21T04:46:17.091Z,10.00
2022-10-21T04:51:18.955Z,9.90
2022-10-21T04:56:20.731Z,9.80
2022-10-21T05:01:22.536Z,9.80
2022-10-21T05:06:24.359Z,9.80
2022-10-21T05:11:26.082Z,9.80
2022-10-21T05:16:27.847Z,9.80
2022-10-21T05:21:29.613Z,9.80
2022-10-21T05:26:31.580Z,9.80
2022-10-21T05:31:33.456Z,9.80
2022-10-21T05:36:35.221Z,9.80
2022-10-21T05:41:37.419Z,9.90
2022-10-21T05:46:39.157Z,9.90
2022-10-21T05:51:40.956Z,9.90
2022-10-21T05:56:42.821Z,10.00
2022-10-21T06:01:44.590Z,10.00
2022-10-21T06:06:46.361Z,10.10
2022-10-21T06:11:48.092Z,10.10
2022-10-21T06:16:49.827Z,10.20
2022-10-21T06:21:51.787Z,10.20
2022-10-21T06:26:53.635Z,10.30
2022-10-21T06:31:55.449Z,10.40
2022-10-21T06:36:57.219Z,10.40
2022-10-21T06:41:58.921Z,10.40
2022-10-21T06:47:15.583Z,10.40
2022-10-21T06:52:17.363Z,10.40
2022-10-21T06:57:19.171Z,10.30
2022-10-21T07:02:21.077Z,10.40
2022-10-21T07:07:22.808Z,10.40
2022-10-21T07:12:25.968Z,10.50
2022-10-21T07:17:29.968Z,10.60
2022-10-21T07:22:31.942Z,10.60
2022-10-21T07:27:33.662Z,10.70
2022-10-21T07:32:35.386Z,10.70
2022-10-21T07:37:37.486Z,10.80
2022-10-21T07:42:39.513Z,10.90
2022-10-21T07:47:42.578Z,10.90
2022-10-21T07:52:54.695Z,11.00
2022-10-21T07:58:05.975Z,11.10
2022-10-21T08:03:07.671Z,11.20
2022-10-21T08:08:09.400Z,11.30
2022-10-21T08:13:11.102Z,11.40
2022-10-21T08:18:13.028Z,11.60
2022-10-21T08:23:20.584Z,11.70
2022-10-21T08:28:23.985Z,11.70
2022-10-21T08:33:25.729Z,11.70
2022-10-21T08:38:27.450Z,11.80
2022-10-21T08:43:34.335Z,11.90
2022-10-21T08:48:43.558Z,12.20
2022-10-21T08:53:46.495Z,12.30
2022-10-21T08:58:51.093Z,12.50
2022-10-21T09:03:58.791Z,12.70
2022-10-21T09:09:28.179Z,12.90
2022-10-21T09:15:00.794Z,13.00
2022-10-21T09:20:21.302Z,13.00
2022-10-21T09:25:42.684Z,13.10
2022-10-21T09:30:45.234Z,13.10
2022-10-21T09:35:49.357Z,13.20
2022-10-21T09:40:59.161Z,13.50
2022-10-21T09:46:00.954Z,13.60
2022-10-21T09:51:14.025Z,13.80
2022-10-21T09:56:38.981Z,14.10
2022-10-21T10:01:43.285Z,14.20
2022-10-21T10:06:45.417Z,14.30
2022-10-21T10:12:14.447Z,14.40
2022-10-21T10:17:22.000Z,14.40
2022-10-21T10:22:24.814Z,14.70
2022-10-21T10:27:27.019Z,14.80
2022-10-21T10:32:34.833Z,15.10
2022-10-21T10:37:38.214Z,15.10
2022-10-21T10:42:46.550Z,15.00
2022-10-21T10:47:59.301Z,14.90
2022-10-21T10:53:23.344Z,14.90
2022-10-21T10:58:29.135Z,15.20
2022-10-21T11:03:41.369Z,15.20
2022-10-21T11:08:52.355Z,15.20
2022-10-21T11:13:54.346Z,15.30
2022-10-21T11:19:15.489Z,15.40
2022-10-21T11:24:38.747Z,15.50
2022-10-21T11:29:46.602Z,15.70
2022-10-21T11:35:01.151Z,15.60
2022-10-21T11:40:14.094Z,15.80
2022-10-21T11:45:30.746Z,16.10
2022-10-21T11:51:06.378Z,16.30
2022-10-21T11:56:43.430Z,16.20
2022-10-21T12:02:10.141Z,16.30
2022-10-21T12:07:42.814Z,16.40
2022-10-21T12:12:49.124Z,16.50
2022-10-21T12:17:51.895Z,16.80
2022-10-21T12:23:00.099Z,16.80
2022-10-21T12:28:11.498Z,16.90
2022-10-21T12:33:36.250Z,16.90
2022-10-21T12:38:51.297Z,16.80
2022-10-21T12:43:59.228Z,16.60
2022-10-21T12:49:22.392Z,16.50
2022-10-21T12:54:31.422Z,16.50
2022-10-21T12:59:33.217Z,16.50
2022-10-21T13:04:34.969Z,16.50
2022-10-21T13:09:41.219Z,16.50
2022-10-21T13:14:45.683Z,16.40
2022-10-21T13:19:52.567Z,16.40
2022-10-21T13:24:54.407Z,16.50
2022-10-21T13:29:57.695Z,16.30
2022-10-21T13:35:20.786Z,16.20
2022-10-21T13:40:30.544Z,16.10
2022-10-21T13:50:49.834Z,15.90
2022-10-21T13:55:57.118Z,15.80
2022-10-21T14:01:07.848Z,15.60
2022-10-21T14:06:11.825Z,15.60
2022-10-21T14:11:22.821Z,15.50
2022-10-21T14:16:34.649Z,15.50
2022-10-21T14:21:39.697Z,15.50
2022-10-21T14:26:46.081Z,15.40
2022-10-21T14:31:48.153Z,15.40
2022-10-21T14:37:13.170Z,15.40
2022-10-21T14:42:24.529Z,15.30
2022-10-21T14:47:27.349Z,15.20
2022-10-21T14:52:39.799Z,15.20
2022-10-21T14:57:55.827Z,15.00
2022-10-21T15:02:59.056Z,15.10
2022-10-21T15:08:26.486Z,15.00
2022-10-21T15:13:28.351Z,15.00
2022-10-21T15:18:39.303Z,15.00
2022-10-21T15:23:50.764Z,14.90
2022-10-21T15:28:54.206Z,14.90
2022-10-21T15:33:58.369Z,14.90
2022-10-21T15:39:00.079Z,14.90
2022-10-21T15:44:21.739Z,14.80
2022-10-21T15:49:26.475Z,14.80
2022-10-21T15:54:28.214Z,14.80
2022-10-21T15:59:32.266Z,14.70
2022-10-21T16:04:33.987Z,14.70
2022-10-21T16:09:35.706Z,14.70
2022-10-21T16:14:37.433Z,14.60
2022-10-21T16:19:39.248Z,14.60
2022-10-21T16:24:41.108Z,14.60
2022-10-21T16:29:43.480Z,14.50
2022-10-21T16:34:45.176Z,14.50
2022-10-21T16:39:47.464Z,14.50
2022-10-21T16:44:50.506Z,14.50
2022-10-21T16:49:52.440Z,14.50
2022-10-21T16:54:54.220Z,14.50
2022-10-21T16:59:56.171Z,14.50
2022-10-21T17:04:57.890Z,14.50
2022-10-21T17:09:59.950Z,14.50
2022-10-21T17:15:02.787Z,14.60
2022-10-21T17:20:04.967Z,14.60
2022-10-21T17:25:07.003Z,14.70
2022-10-21T17:30:09.487Z,14.70
2022-10-21T17:35:18.424Z,14.70
2022-10-21T17:40:26.274Z,14.70
2022-10-21T17:45:28.141Z,14.80
2022-10-21T17:50:31.817Z,14.80
2022-10-21T17:55:33.591Z,14.80
2022-10-21T18:00:35.716Z,14.70
2022-10-21T18:05:40.323Z,14.70
2022-10-21T18:10:42.496Z,14.70
2022-10-21T18:15:44.223Z,14.70
2022-10-21T18:20:46.282Z,14.70
2022-10-21T18:25:48.437Z,14.70
2022-10-21T18:30:50.427Z,14.60
2022-10-21T18:35:52.257Z,14.60
2022-10-21T18:41:02.020Z,14.60
2022-10-21T18:46:10.269Z,14.70
2022-10-21T18:51:15.487Z,14.70
2022-10-21T18:56:18.088Z,14.80
2022-10-21T19:01:21.899Z,14.80
2022-10-21T19:06:32.766Z,14.80
2022-10-21T19:11:34.675Z,14.80
2022-10-21T19:16:36.743Z,14.80
2022-10-21T19:21:39.057Z,14.80
2022-10-21T19:26:42.621Z,14.80
2022-10-21T19:31:44.856Z,14.90
2022-10-21T19:36:47.149Z,14.90
2022-10-21T19:41:48.910Z,14.80
2022-10-21T19:46:50.919Z,14.90
2022-10-21T19:51:52.691Z,14.90
2022-10-21T19:56:54.612Z,14.90
2022-10-21T20:01:56.351Z,14.90
2022-10-21T20:07:01.595Z,14.90
2022-10-21T20:12:03.470Z,14.90
2022-10-21T20:17:05.306Z,14.80
2022-10-21T20:22:07.185Z,14.90
2022-10-21T20:27:08.993Z,14.90
2022-10-21T20:32:10.759Z,14.90
2022-10-21T20:37:12.837Z,14.90
2022-10-21T20:42:14.577Z,14.90
2022-10-21T20:47:17.101Z,14.90
2022-10-21T20:52:18.909Z,14.90
2022-10-21T20:57:21.580Z,14.90
2022-10-21T21:02:23.309Z,14.90
2022-10-21T21:07:25.062Z,14.90
2022-10-21T21:12:28.345Z,14.90
2022-10-21T21:17:30.066Z,14.80
2022-10-21T21:22:31.807Z,14.80
2022-10-21T21:27:33.539Z,14.80
2022-10-21T21:32:35.260Z,14.80
2022-10-21T21:37:37.558Z,14.80
2022-10-21T21:42:39.916Z,14.80
2022-10-21T21:47:41.897Z,14.80
2022-10-21T21:52:43.801Z,14.80
2022-10-21T21:57:45.673Z,14.80
2022-10-21T22:02:47.834Z,14.80
2022-10-21T22:07:49.696Z,14.80
2022-10-21T22:12:51.512Z,14.80
2022-10-21T22:17:53.951Z,14.90
2022-10-21T22:22:56.177Z,14.90
2022-10-21T22:27:57.938Z,14.80
2022-10-21T22:33:00.000Z,14.80
2022-10-21T22:38:01.803Z,14.70
2022-10-21T22:43:03.536Z,14.70
2022-10-21T22:48:05.492Z,14.70
2022-10-21T22:53:07.228Z,14.70
2022-10-21T22:58:19.832Z,14.70
2022-10-21T23:03:21.629Z,14.70
2022-10-21T23:08:25.743Z,14.70
2022-10-21T23:13:27.530Z,14.70
2022-10-21T23:18:29.314Z,14.70
2022-10-21T23:23:31.042Z,14.70
2022-10-21T23:28:33.036Z,14.60
2022-10-21T23:33:34.902Z,14.50
2022-10-21T23:38:36.627Z,14.50
2022-10-21T23:43:38.350Z,14.50
2022-10-21T23:48:40.066Z,14.40
2022-10-21T23:53:41.793Z,14.30
2022-10-21T23:58:43.676Z,14.30
